sensor_id;sensor_type;location;lat;lon;timestamp;temperature;humidity
29547;DHT22;40782;47.264;11.330;2023-12-28T00:01:39;0.20;99.90
29547;DHT22;40782;47.264;11.330;2023-12-28T00:04:06;0.20;99.90
29547;DHT22;40782;47.264;11.330;2023-12-28T00:06:34;0.30;99.90
29547;DHT22;40782;47.264;11.330;2023-12-28T00:09:01;0.30;99.90
29547;DHT22;40782;47.264;11.330;2023-12-28T00:11:28;0.30;99.90
29547;DHT22;40782;47.264;11.330;2023-12-28T00:13:55;0.30;99.90
29547;DHT22;40782;47.264;11.330;2023-12-28T00:16:22;0.40;99.90
29547;DHT22;40782;47.264;11.330;2023-12-28T00:18:48;0.40;99.90
29547;DHT22;40782;47.264;11.330;2023-12-28T00:21:15;0.40;99.90
29547;DHT22;40782;47.264;11.330;2023-12-28T00:23:43;0.40;99.90
29547;DHT22;40782;47.264;11.330;2023-12-28T00:26:10;0.40;99.90
29547;DHT22;40782;47.264;11.330;2023-12-28T00:28:37;0.40;99.90
29547;DHT22;40782;47.264;11.330;2023-12-28T00:31:04;0.40;99.90
29547;DHT22;40782;47.264;11.330;2023-12-28T00:33:31;0.40;99.90
29547;DHT22;40782;47.264;11.330;2023-12-28T00:35:58;0.40;99.90
29547;DHT22;40782;47.264;11.330;2023-12-28T00:38:25;0.40;99.90
29547;DHT22;40782;47.264;11.330;2023-12-28T00:40:53;0.40;99.90
29547;DHT22;40782;47.264;11.330;2023-12-28T00:43:20;0.40;99.90
29547;DHT22;40782;47.264;11.330;2023-12-28T00:45:47;0.40;99.90
29547;DHT22;40782;47.264;11.330;2023-12-28T00:48:13;0.40;99.90
29547;DHT22;40782;47.264;11.330;2023-12-28T00:50:40;0.40;99.90
29547;DHT22;40782;47.264;11.330;2023-12-28T00:53:07;0.40;99.90
29547;DHT22;40782;47.264;11.330;2023-12-28T00:55:34;0.40;99.90
29547;DHT22;40782;47.264;11.330;2023-12-28T00:58:02;0.40;99.90
29547;DHT22;40782;47.264;11.330;2023-12-28T01:00:30;0.40;99.90
29547;DHT22;40782;47.264;11.330;2023-12-28T01:02:58;0.40;99.90
29547;DHT22;40782;47.264;11.330;2023-12-28T01:05:25;0.40;99.90
29547;DHT22;40782;47.264;11.330;2023-12-28T01:07:54;0.40;99.90
29547;DHT22;40782;47.264;11.330;2023-12-28T01:10:21;0.30;99.90
29547;DHT22;40782;47.264;11.330;2023-12-28T01:12:47;0.30;99.90
29547;DHT22;40782;47.264;11.330;2023-12-28T01:15:16;0.30;99.90
29547;DHT22;40782;47.264;11.330;2023-12-28T01:17:43;0.30;99.90
29547;DHT22;40782;47.264;11.330;2023-12-28T01:20:10;0.30;99.90
29547;DHT22;40782;47.264;11.330;2023-12-28T01:22:37;0.30;99.90
29547;DHT22;40782;47.264;11.330;2023-12-28T01:25:04;0.30;99.90
29547;DHT22;40782;47.264;11.330;2023-12-28T01:27:31;0.30;99.90
29547;DHT22;40782;47.264;11.330;2023-12-28T01:29:58;0.40;99.90
29547;DHT22;40782;47.264;11.330;2023-12-28T01:32:26;0.30;99.90
29547;DHT22;40782;47.264;11.330;2023-12-28T01:34:53;0.30;99.90
29547;DHT22;40782;47.264;11.330;2023-12-28T01:37:20;0.30;99.90
29547;DHT22;40782;47.264;11.330;2023-12-28T01:39:47;0.30;99.90
29547;DHT22;40782;47.264;11.330;2023-12-28T01:42:13;0.30;99.90
29547;DHT22;40782;47.264;11.330;2023-12-28T01:44:40;0.30;99.90
29547;DHT22;40782;47.264;11.330;2023-12-28T01:47:06;0.30;99.90
29547;DHT22;40782;47.264;11.330;2023-12-28T01:49:35;0.30;99.90
29547;DHT22;40782;47.264;11.330;2023-12-28T01:52:02;0.30;99.90
29547;DHT22;40782;47.264;11.330;2023-12-28T01:54:29;0.30;99.90
29547;DHT22;40782;47.264;11.330;2023-12-28T01:56:57;0.40;99.90
29547;DHT22;40782;47.264;11.330;2023-12-28T01:59:24;0.40;99.90
29547;DHT22;40782;47.264;11.330;2023-12-28T02:01:51;0.30;99.90
29547;DHT22;40782;47.264;11.330;2023-12-28T02:04:17;0.30;99.90
29547;DHT22;40782;47.264;11.330;2023-12-28T02:06:53;0.30;99.90
29547;DHT22;40782;47.264;11.330;2023-12-28T02:09:22;0.20;99.90
29547;DHT22;40782;47.264;11.330;2023-12-28T02:11:49;0.20;99.90
29547;DHT22;40782;47.264;11.330;2023-12-28T02:14:16;0.10;99.90
29547;DHT22;40782;47.264;11.330;2023-12-28T02:16:44;0.10;99.90
29547;DHT22;40782;47.264;11.330;2023-12-28T02:19:15;0.10;99.90
29547;DHT22;40782;47.264;11.330;2023-12-28T02:21:44;0.10;99.90
29547;DHT22;40782;47.264;11.330;2023-12-28T02:24:13;0.10;99.90
29547;DHT22;40782;47.264;11.330;2023-12-28T02:26:41;0.10;99.90
29547;DHT22;40782;47.264;11.330;2023-12-28T02:29:08;0.10;99.90
29547;DHT22;40782;47.264;11.330;2023-12-28T02:31:38;0.20;99.90
29547;DHT22;40782;47.264;11.330;2023-12-28T02:34:06;0.30;99.90
29547;DHT22;40782;47.264;11.330;2023-12-28T02:36:35;0.30;99.90
29547;DHT22;40782;47.264;11.330;2023-12-28T02:39:03;0.30;99.90
29547;DHT22;40782;47.264;11.330;2023-12-28T02:41:30;0.30;99.90
29547;DHT22;40782;47.264;11.330;2023-12-28T02:43:59;0.30;99.90
29547;DHT22;40782;47.264;11.330;2023-12-28T02:46:26;0.30;99.90
29547;DHT22;40782;47.264;11.330;2023-12-28T02:48:53;0.30;99.90
29547;DHT22;40782;47.264;11.330;2023-12-28T02:51:22;0.30;99.90
29547;DHT22;40782;47.264;11.330;2023-12-28T02:53:49;0.20;99.90
29547;DHT22;40782;47.264;11.330;2023-12-28T02:56:16;0.20;99.90
29547;DHT22;40782;47.264;11.330;2023-12-28T02:58:43;0.20;99.90
29547;DHT22;40782;47.264;11.330;2023-12-28T03:01:11;0.10;99.90
29547;DHT22;40782;47.264;11.330;2023-12-28T03:03:38;0.10;99.90
29547;DHT22;40782;47.264;11.330;2023-12-28T03:06:05;0.10;99.90
29547;DHT22;40782;47.264;11.330;2023-12-28T03:08:32;0.00;99.90
29547;DHT22;40782;47.264;11.330;2023-12-28T03:10:59;0.00;99.90
29547;DHT22;40782;47.264;11.330;2023-12-28T03:13:26;0.00;99.90
29547;DHT22;40782;47.264;11.330;2023-12-28T03:15:53;0.00;99.90
29547;DHT22;40782;47.264;11.330;2023-12-28T03:18:21;-0.10;99.90
29547;DHT22;40782;47.264;11.330;2023-12-28T03:20:48;-0.10;99.90
29547;DHT22;40782;47.264;11.330;2023-12-28T03:23:15;-0.10;99.90
29547;DHT22;40782;47.264;11.330;2023-12-28T03:25:42;-0.10;99.90
29547;DHT22;40782;47.264;11.330;2023-12-28T03:28:09;-0.10;99.90
29547;DHT22;40782;47.264;11.330;2023-12-28T03:30:36;-0.10;99.90
29547;DHT22;40782;47.264;11.330;2023-12-28T03:33:03;-0.10;99.90
29547;DHT22;40782;47.264;11.330;2023-12-28T03:35:31;-0.10;99.90
29547;DHT22;40782;47.264;11.330;2023-12-28T03:37:58;-0.10;99.90
29547;DHT22;40782;47.264;11.330;2023-12-28T03:40:25;-0.10;99.90
29547;DHT22;40782;47.264;11.330;2023-12-28T03:42:52;-0.10;99.90
29547;DHT22;40782;47.264;11.330;2023-12-28T03:45:18;-0.10;99.90
29547;DHT22;40782;47.264;11.330;2023-12-28T03:47:45;-0.10;99.90
29547;DHT22;40782;47.264;11.330;2023-12-28T03:50:12;-0.10;99.90
29547;DHT22;40782;47.264;11.330;2023-12-28T03:52:40;-0.20;99.90
29547;DHT22;40782;47.264;11.330;2023-12-28T03:55:07;-0.30;99.90
29547;DHT22;40782;47.264;11.330;2023-12-28T03:57:34;-0.40;99.90
29547;DHT22;40782;47.264;11.330;2023-12-28T04:00:01;-0.40;99.90
29547;DHT22;40782;47.264;11.330;2023-12-28T04:02:28;-0.50;99.90
29547;DHT22;40782;47.264;11.330;2023-12-28T04:04:57;-0.60;99.90
29547;DHT22;40782;47.264;11.330;2023-12-28T04:07:24;-0.50;99.90
29547;DHT22;40782;47.264;11.330;2023-12-28T04:09:52;-0.60;99.90
29547;DHT22;40782;47.264;11.330;2023-12-28T04:12:20;-0.60;99.90
29547;DHT22;40782;47.264;11.330;2023-12-28T04:14:47;-0.60;99.90
29547;DHT22;40782;47.264;11.330;2023-12-28T04:17:14;-0.60;99.90
29547;DHT22;40782;47.264;11.330;2023-12-28T04:19:41;-0.60;99.90
29547;DHT22;40782;47.264;11.330;2023-12-28T04:22:07;-0.60;99.90
29547;DHT22;40782;47.264;11.330;2023-12-28T04:24:34;-0.70;99.90
29547;DHT22;40782;47.264;11.330;2023-12-28T04:27:03;-0.70;99.90
29547;DHT22;40782;47.264;11.330;2023-12-28T04:29:29;-0.70;99.90
29547;DHT22;40782;47.264;11.330;2023-12-28T04:31:56;-0.70;99.90
29547;DHT22;40782;47.264;11.330;2023-12-28T04:34:23;-0.70;99.90
29547;DHT22;40782;47.264;11.330;2023-12-28T04:36:50;-0.80;99.90
29547;DHT22;40782;47.264;11.330;2023-12-28T04:39:17;-0.80;99.90
29547;DHT22;40782;47.264;11.330;2023-12-28T04:41:45;-0.80;99.90
29547;DHT22;40782;47.264;11.330;2023-12-28T04:44:13;-0.80;99.90
29547;DHT22;40782;47.264;11.330;2023-12-28T04:46:39;-0.80;99.90
29547;DHT22;40782;47.264;11.330;2023-12-28T04:49:06;-0.80;99.90
29547;DHT22;40782;47.264;11.330;2023-12-28T04:51:33;-0.80;99.90
29547;DHT22;40782;47.264;11.330;2023-12-28T04:54:00;-0.80;99.90
29547;DHT22;40782;47.264;11.330;2023-12-28T04:56:27;-0.80;99.90
29547;DHT22;40782;47.264;11.330;2023-12-28T04:58:54;-0.80;99.90
29547;DHT22;40782;47.264;11.330;2023-12-28T05:01:22;-0.80;99.90
29547;DHT22;40782;47.264;11.330;2023-12-28T05:03:49;-0.80;99.90
29547;DHT22;40782;47.264;11.330;2023-12-28T05:06:16;-0.80;99.90
29547;DHT22;40782;47.264;11.330;2023-12-28T05:08:43;-0.80;99.90
29547;DHT22;40782;47.264;11.330;2023-12-28T05:11:10;-0.80;99.90
29547;DHT22;40782;47.264;11.330;2023-12-28T05:13:37;-0.80;99.90
29547;DHT22;40782;47.264;11.330;2023-12-28T05:16:04;-0.90;99.90
29547;DHT22;40782;47.264;11.330;2023-12-28T05:18:32;-0.80;99.90
29547;DHT22;40782;47.264;11.330;2023-12-28T05:20:59;-0.80;99.90
29547;DHT22;40782;47.264;11.330;2023-12-28T05:23:26;-0.80;99.90
29547;DHT22;40782;47.264;11.330;2023-12-28T05:25:53;-0.80;99.90
29547;DHT22;40782;47.264;11.330;2023-12-28T05:28:20;-0.80;99.90
29547;DHT22;40782;47.264;11.330;2023-12-28T05:30:46;-0.80;99.90
29547;DHT22;40782;47.264;11.330;2023-12-28T05:33:13;-0.80;99.90
29547;DHT22;40782;47.264;11.330;2023-12-28T05:35:41;-0.80;99.90
29547;DHT22;40782;47.264;11.330;2023-12-28T05:38:08;-0.80;99.90
29547;DHT22;40782;47.264;11.330;2023-12-28T05:40:35;-0.80;99.90
29547;DHT22;40782;47.264;11.330;2023-12-28T05:43:02;-0.80;99.90
29547;DHT22;40782;47.264;11.330;2023-12-28T05:45:29;-0.70;99.90
29547;DHT22;40782;47.264;11.330;2023-12-28T05:47:56;-0.80;99.90
29547;DHT22;40782;47.264;11.330;2023-12-28T05:50:23;-0.80;99.90
29547;DHT22;40782;47.264;11.330;2023-12-28T05:52:51;-0.80;99.90
29547;DHT22;40782;47.264;11.330;2023-12-28T05:55:18;-0.80;99.90
29547;DHT22;40782;47.264;11.330;2023-12-28T05:57:45;-0.80;99.90
29547;DHT22;40782;47.264;11.330;2023-12-28T06:00:13;-0.90;99.90
29547;DHT22;40782;47.264;11.330;2023-12-28T06:02:40;-0.90;99.90
29547;DHT22;40782;47.264;11.330;2023-12-28T06:05:07;-1.00;99.90
29547;DHT22;40782;47.264;11.330;2023-12-28T06:07:34;-1.00;99.90
29547;DHT22;40782;47.264;11.330;2023-12-28T06:10:02;-1.00;99.90
29547;DHT22;40782;47.264;11.330;2023-12-28T06:12:29;-0.90;99.90
29547;DHT22;40782;47.264;11.330;2023-12-28T06:14:56;-0.90;99.90
29547;DHT22;40782;47.264;11.330;2023-12-28T06:17:24;-0.90;99.90
29547;DHT22;40782;47.264;11.330;2023-12-28T06:19:50;-0.90;99.90
29547;DHT22;40782;47.264;11.330;2023-12-28T06:22:17;-0.90;99.90
29547;DHT22;40782;47.264;11.330;2023-12-28T06:24:44;-0.90;99.90
29547;DHT22;40782;47.264;11.330;2023-12-28T06:27:12;-0.90;99.90
29547;DHT22;40782;47.264;11.330;2023-12-28T06:29:39;-0.80;99.90
29547;DHT22;40782;47.264;11.330;2023-12-28T06:32:06;-0.80;99.90
29547;DHT22;40782;47.264;11.330;2023-12-28T06:34:33;-0.80;99.90
29547;DHT22;40782;47.264;11.330;2023-12-28T06:37:00;-0.70;99.90
29547;DHT22;40782;47.264;11.330;2023-12-28T06:39:27;-0.70;99.90
29547;DHT22;40782;47.264;11.330;2023-12-28T06:41:54;-0.60;99.90
29547;DHT22;40782;47.264;11.330;2023-12-28T06:44:22;-0.60;99.90
29547;DHT22;40782;47.264;11.330;2023-12-28T06:46:50;-0.70;99.90
29547;DHT22;40782;47.264;11.330;2023-12-28T06:49:16;-0.70;99.90
29547;DHT22;40782;47.264;11.330;2023-12-28T06:51:43;-0.80;99.90
29547;DHT22;40782;47.264;11.330;2023-12-28T06:54:11;-0.80;99.90
29547;DHT22;40782;47.264;11.330;2023-12-28T06:56:38;-0.90;99.90
29547;DHT22;40782;47.264;11.330;2023-12-28T06:59:05;-0.90;99.90
29547;DHT22;40782;47.264;11.330;2023-12-28T07:01:34;-0.90;99.90
29547;DHT22;40782;47.264;11.330;2023-12-28T07:04:00;-1.00;99.90
29547;DHT22;40782;47.264;11.330;2023-12-28T07:06:27;-1.00;99.90
29547;DHT22;40782;47.264;11.330;2023-12-28T07:08:54;-1.00;99.90
29547;DHT22;40782;47.264;11.330;2023-12-28T07:11:21;-1.00;99.90
29547;DHT22;40782;47.264;11.330;2023-12-28T07:13:48;-1.00;99.90
29547;DHT22;40782;47.264;11.330;2023-12-28T07:16:15;-1.00;99.90
29547;DHT22;40782;47.264;11.330;2023-12-28T07:18:43;-1.00;99.90
29547;DHT22;40782;47.264;11.330;2023-12-28T07:21:10;-1.00;99.90
29547;DHT22;40782;47.264;11.330;2023-12-28T07:23:37;-0.90;99.90
29547;DHT22;40782;47.264;11.330;2023-12-28T07:26:04;-0.90;99.90
29547;DHT22;40782;47.264;11.330;2023-12-28T07:28:31;-0.90;99.90
29547;DHT22;40782;47.264;11.330;2023-12-28T07:30:58;-0.90;99.90
29547;DHT22;40782;47.264;11.330;2023-12-28T07:33:25;-0.90;99.90
29547;DHT22;40782;47.264;11.330;2023-12-28T07:35:53;-1.00;99.90
29547;DHT22;40782;47.264;11.330;2023-12-28T07:38:20;-1.00;99.90
29547;DHT22;40782;47.264;11.330;2023-12-28T07:40:47;-1.00;99.90
29547;DHT22;40782;47.264;11.330;2023-12-28T07:43:14;-0.90;99.90
29547;DHT22;40782;47.264;11.330;2023-12-28T07:45:41;-0.90;99.90
29547;DHT22;40782;47.264;11.330;2023-12-28T07:48:08;-0.90;99.90
29547;DHT22;40782;47.264;11.330;2023-12-28T07:50:35;-0.90;99.90
29547;DHT22;40782;47.264;11.330;2023-12-28T07:53:04;-0.80;99.90
29547;DHT22;40782;47.264;11.330;2023-12-28T07:55:31;-0.80;99.90
29547;DHT22;40782;47.264;11.330;2023-12-28T07:57:57;-0.70;99.90
29547;DHT22;40782;47.264;11.330;2023-12-28T08:00:24;-0.70;99.90
29547;DHT22;40782;47.264;11.330;2023-12-28T08:02:51;-0.60;99.90
29547;DHT22;40782;47.264;11.330;2023-12-28T08:05:18;-0.60;99.90
29547;DHT22;40782;47.264;11.330;2023-12-28T08:07:45;-0.50;99.90
29547;DHT22;40782;47.264;11.330;2023-12-28T08:10:13;-0.50;99.90
29547;DHT22;40782;47.264;11.330;2023-12-28T08:12:40;-0.40;99.90
29547;DHT22;40782;47.264;11.330;2023-12-28T08:15:09;-0.40;99.90
29547;DHT22;40782;47.264;11.330;2023-12-28T08:17:35;-0.40;99.90
29547;DHT22;40782;47.264;11.330;2023-12-28T08:20:03;-0.40;99.90
29547;DHT22;40782;47.264;11.330;2023-12-28T08:22:31;-0.30;99.90
29547;DHT22;40782;47.264;11.330;2023-12-28T08:24:59;-0.20;99.90
29547;DHT22;40782;47.264;11.330;2023-12-28T08:27:27;-0.20;99.90
29547;DHT22;40782;47.264;11.330;2023-12-28T08:29:54;-0.20;99.90
29547;DHT22;40782;47.264;11.330;2023-12-28T08:32:21;-0.10;99.90
29547;DHT22;40782;47.264;11.330;2023-12-28T08:34:47;-0.10;99.90
29547;DHT22;40782;47.264;11.330;2023-12-28T08:37:14;0.10;99.90
29547;DHT22;40782;47.264;11.330;2023-12-28T08:39:41;0.10;99.90
29547;DHT22;40782;47.264;11.330;2023-12-28T08:42:08;0.20;99.90
29547;DHT22;40782;47.264;11.330;2023-12-28T08:44:36;0.30;99.90
29547;DHT22;40782;47.264;11.330;2023-12-28T08:47:03;0.40;99.90
29547;DHT22;40782;47.264;11.330;2023-12-28T08:49:30;0.50;99.90
29547;DHT22;40782;47.264;11.330;2023-12-28T08:51:58;0.60;99.90
29547;DHT22;40782;47.264;11.330;2023-12-28T08:54:25;0.80;99.90
29547;DHT22;40782;47.264;11.330;2023-12-28T08:56:52;0.90;99.90
29547;DHT22;40782;47.264;11.330;2023-12-28T08:59:19;1.00;99.90
29547;DHT22;40782;47.264;11.330;2023-12-28T09:01:48;1.20;99.90
29547;DHT22;40782;47.264;11.330;2023-12-28T09:04:15;1.30;99.90
29547;DHT22;40782;47.264;11.330;2023-12-28T09:06:42;1.40;99.90
29547;DHT22;40782;47.264;11.330;2023-12-28T09:09:09;1.50;99.90
29547;DHT22;40782;47.264;11.330;2023-12-28T09:11:35;1.60;99.90
29547;DHT22;40782;47.264;11.330;2023-12-28T09:14:02;1.80;99.90
29547;DHT22;40782;47.264;11.330;2023-12-28T09:16:29;2.00;99.90
29547;DHT22;40782;47.264;11.330;2023-12-28T09:18:57;2.10;99.90
29547;DHT22;40782;47.264;11.330;2023-12-28T09:21:24;2.30;99.90
29547;DHT22;40782;47.264;11.330;2023-12-28T09:23:52;2.60;99.90
29547;DHT22;40782;47.264;11.330;2023-12-28T09:26:18;2.80;99.90
29547;DHT22;40782;47.264;11.330;2023-12-28T09:28:46;3.10;99.90
29547;DHT22;40782;47.264;11.330;2023-12-28T09:31:12;3.20;99.90
29547;DHT22;40782;47.264;11.330;2023-12-28T09:33:39;3.40;96.50
29547;DHT22;40782;47.264;11.330;2023-12-28T09:36:08;3.60;92.10
29547;DHT22;40782;47.264;11.330;2023-12-28T09:38:38;3.80;83.80
29547;DHT22;40782;47.264;11.330;2023-12-28T09:41:07;4.00;68.80
29547;DHT22;40782;47.264;11.330;2023-12-28T09:43:37;4.20;62.00
29547;DHT22;40782;47.264;11.330;2023-12-28T09:46:07;4.30;47.30
29547;DHT22;40782;47.264;11.330;2023-12-28T09:48:36;4.50;68.40
29547;DHT22;40782;47.264;11.330;2023-12-28T09:51:04;4.60;45.90
29547;DHT22;40782;47.264;11.330;2023-12-28T09:53:32;4.80;45.20
29547;DHT22;40782;47.264;11.330;2023-12-28T09:55:59;5.00;38.80
29547;DHT22;40782;47.264;11.330;2023-12-28T09:58:26;5.10;32.90
29547;DHT22;40782;47.264;11.330;2023-12-28T10:00:53;5.20;31.50
29547;DHT22;40782;47.264;11.330;2023-12-28T10:03:20;5.20;30.40
29547;DHT22;40782;47.264;11.330;2023-12-28T10:05:47;5.20;28.30
29547;DHT22;40782;47.264;11.330;2023-12-28T10:08:14;5.30;30.40
29547;DHT22;40782;47.264;11.330;2023-12-28T10:10:42;5.40;28.50
29547;DHT22;40782;47.264;11.330;2023-12-28T10:13:16;5.50;25.50
29547;DHT22;40782;47.264;11.330;2023-12-28T10:15:43;5.70;27.20
29547;DHT22;40782;47.264;11.330;2023-12-28T10:18:10;6.00;25.10
29547;DHT22;40782;47.264;11.330;2023-12-28T10:20:37;6.20;10.30
29547;DHT22;40782;47.264;11.330;2023-12-28T10:23:04;6.30;4.70
29547;DHT22;40782;47.264;11.330;2023-12-28T10:25:31;6.50;5.40
29547;DHT22;40782;47.264;11.330;2023-12-28T10:28:03;6.60;3.60
29547;DHT22;40782;47.264;11.330;2023-12-28T10:30:30;6.60;1.40
29547;DHT22;40782;47.264;11.330;2023-12-28T10:32:57;6.60;1.00
29547;DHT22;40782;47.264;11.330;2023-12-28T10:35:24;6.70;1.00
29547;DHT22;40782;47.264;11.330;2023-12-28T10:37:51;6.70;1.00
29547;DHT22;40782;47.264;11.330;2023-12-28T10:40:19;6.80;1.00
29547;DHT22;40782;47.264;11.330;2023-12-28T10:42:49;6.90;1.00
29547;DHT22;40782;47.264;11.330;2023-12-28T10:45:19;7.00;1.50
29547;DHT22;40782;47.264;11.330;2023-12-28T10:47:52;7.20;2.60
29547;DHT22;40782;47.264;11.330;2023-12-28T10:50:20;7.40;1.00
29547;DHT22;40782;47.264;11.330;2023-12-28T10:52:48;7.40;1.00
29547;DHT22;40782;47.264;11.330;2023-12-28T10:55:21;7.50;1.00
29547;DHT22;40782;47.264;11.330;2023-12-28T10:57:54;7.70;1.00
29547;DHT22;40782;47.264;11.330;2023-12-28T11:00:26;8.00;1.00
29547;DHT22;40782;47.264;11.330;2023-12-28T11:02:56;8.00;1.00
29547;DHT22;40782;47.264;11.330;2023-12-28T11:05:23;8.00;1.00
29547;DHT22;40782;47.264;11.330;2023-12-28T11:07:50;8.00;1.00
29547;DHT22;40782;47.264;11.330;2023-12-28T11:10:21;8.10;1.00
29547;DHT22;40782;47.264;11.330;2023-12-28T11:12:50;8.20;1.00
29547;DHT22;40782;47.264;11.330;2023-12-28T11:15:18;8.40;1.00
29547;DHT22;40782;47.264;11.330;2023-12-28T11:17:47;8.60;1.00
29547;DHT22;40782;47.264;11.330;2023-12-28T11:20:13;8.80;1.00
29547;DHT22;40782;47.264;11.330;2023-12-28T11:22:40;8.90;1.00
29547;DHT22;40782;47.264;11.330;2023-12-28T11:25:14;9.20;1.00
29547;DHT22;40782;47.264;11.330;2023-12-28T11:27:41;9.50;1.00
29547;DHT22;40782;47.264;11.330;2023-12-28T11:30:09;9.70;1.00
29547;DHT22;40782;47.264;11.330;2023-12-28T11:32:36;9.80;1.00
29547;DHT22;40782;47.264;11.330;2023-12-28T11:35:07;9.80;1.00
29547;DHT22;40782;47.264;11.330;2023-12-28T11:37:36;9.70;1.00
29547;DHT22;40782;47.264;11.330;2023-12-28T11:40:09;9.60;1.00
29547;DHT22;40782;47.264;11.330;2023-12-28T11:42:36;9.50;1.00
29547;DHT22;40782;47.264;11.330;2023-12-28T11:45:13;9.40;1.00
29547;DHT22;40782;47.264;11.330;2023-12-28T11:47:42;9.40;1.00
29547;DHT22;40782;47.264;11.330;2023-12-28T11:50:11;9.50;1.00
29547;DHT22;40782;47.264;11.330;2023-12-28T11:52:39;9.50;1.00
29547;DHT22;40782;47.264;11.330;2023-12-28T11:55:06;9.60;1.00
29547;DHT22;40782;47.264;11.330;2023-12-28T11:57:32;9.50;1.00
29547;DHT22;40782;47.264;11.330;2023-12-28T12:00:02;9.40;1.00
29547;DHT22;40782;47.264;11.330;2023-12-28T12:02:29;9.40;1.00
29547;DHT22;40782;47.264;11.330;2023-12-28T12:04:56;9.40;1.00
29547;DHT22;40782;47.264;11.330;2023-12-28T12:07:25;9.20;1.00
29547;DHT22;40782;47.264;11.330;2023-12-28T12:09:55;9.00;1.00
29547;DHT22;40782;47.264;11.330;2023-12-28T12:12:21;8.80;1.00
29547;DHT22;40782;47.264;11.330;2023-12-28T12:14:48;8.60;1.00
29547;DHT22;40782;47.264;11.330;2023-12-28T12:17:15;8.40;1.00
29547;DHT22;40782;47.264;11.330;2023-12-28T12:19:44;8.20;1.00
29547;DHT22;40782;47.264;11.330;2023-12-28T12:22:14;8.20;1.00
29547;DHT22;40782;47.264;11.330;2023-12-28T12:24:42;8.30;1.00
29547;DHT22;40782;47.264;11.330;2023-12-28T12:27:10;8.40;1.00
29547;DHT22;40782;47.264;11.330;2023-12-28T12:29:37;8.60;1.00
29547;DHT22;40782;47.264;11.330;2023-12-28T12:32:04;8.80;1.00
29547;DHT22;40782;47.264;11.330;2023-12-28T12:34:32;8.90;1.00
29547;DHT22;40782;47.264;11.330;2023-12-28T12:37:00;9.10;1.00
29547;DHT22;40782;47.264;11.330;2023-12-28T12:39:26;9.40;1.00
29547;DHT22;40782;47.264;11.330;2023-12-28T12:41:55;9.60;1.00
29547;DHT22;40782;47.264;11.330;2023-12-28T12:44:23;9.70;1.00
29547;DHT22;40782;47.264;11.330;2023-12-28T12:46:56;9.70;1.00
29547;DHT22;40782;47.264;11.330;2023-12-28T12:49:23;9.70;1.00
29547;DHT22;40782;47.264;11.330;2023-12-28T12:51:50;9.70;1.00
29547;DHT22;40782;47.264;11.330;2023-12-28T12:54:17;9.80;1.00
29547;DHT22;40782;47.264;11.330;2023-12-28T12:56:45;9.80;1.00
29547;DHT22;40782;47.264;11.330;2023-12-28T12:59:13;9.90;1.00
29547;DHT22;40782;47.264;11.330;2023-12-28T13:01:43;10.10;1.00
29547;DHT22;40782;47.264;11.330;2023-12-28T13:04:10;10.40;1.00
29547;DHT22;40782;47.264;11.330;2023-12-28T13:06:36;10.70;1.00
29547;DHT22;40782;47.264;11.330;2023-12-28T13:09:03;10.90;1.00
29547;DHT22;40782;47.264;11.330;2023-12-28T13:11:32;11.10;1.00
29547;DHT22;40782;47.264;11.330;2023-12-28T13:13:59;11.20;1.00
29547;DHT22;40782;47.264;11.330;2023-12-28T13:16:27;11.10;1.00
29547;DHT22;40782;47.264;11.330;2023-12-28T13:18:55;11.20;1.00
29547;DHT22;40782;47.264;11.330;2023-12-28T13:21:22;11.30;1.00
29547;DHT22;40782;47.264;11.330;2023-12-28T13:23:49;11.30;1.00
29547;DHT22;40782;47.264;11.330;2023-12-28T13:26:16;11.50;1.00
29547;DHT22;40782;47.264;11.330;2023-12-28T13:28:43;11.60;1.00
29547;DHT22;40782;47.264;11.330;2023-12-28T13:31:10;11.70;1.00
29547;DHT22;40782;47.264;11.330;2023-12-28T13:33:39;11.80;1.00
29547;DHT22;40782;47.264;11.330;2023-12-28T13:36:06;11.80;1.00
29547;DHT22;40782;47.264;11.330;2023-12-28T13:38:32;11.60;1.00
29547;DHT22;40782;47.264;11.330;2023-12-28T13:41:00;11.30;1.00
29547;DHT22;40782;47.264;11.330;2023-12-28T13:43:27;11.10;1.00
29547;DHT22;40782;47.264;11.330;2023-12-28T13:45:53;10.90;1.00
29547;DHT22;40782;47.264;11.330;2023-12-28T13:48:21;10.70;1.00
29547;DHT22;40782;47.264;11.330;2023-12-28T13:50:49;10.40;1.00
29547;DHT22;40782;47.264;11.330;2023-12-28T13:53:16;10.20;1.00
29547;DHT22;40782;47.264;11.330;2023-12-28T13:55:43;10.00;1.00
29547;DHT22;40782;47.264;11.330;2023-12-28T13:58:11;9.80;1.00
29547;DHT22;40782;47.264;11.330;2023-12-28T14:00:37;9.60;1.00
29547;DHT22;40782;47.264;11.330;2023-12-28T14:03:06;9.50;1.00
29547;DHT22;40782;47.264;11.330;2023-12-28T14:05:32;9.30;1.00
29547;DHT22;40782;47.264;11.330;2023-12-28T14:08:01;9.20;1.00
29547;DHT22;40782;47.264;11.330;2023-12-28T14:10:28;9.10;1.00
29547;DHT22;40782;47.264;11.330;2023-12-28T14:12:55;8.90;1.00
29547;DHT22;40782;47.264;11.330;2023-12-28T14:15:22;8.80;1.00
29547;DHT22;40782;47.264;11.330;2023-12-28T14:17:49;8.80;1.00
29547;DHT22;40782;47.264;11.330;2023-12-28T14:20:16;8.70;1.00
29547;DHT22;40782;47.264;11.330;2023-12-28T14:22:43;8.60;1.00
29547;DHT22;40782;47.264;11.330;2023-12-28T14:25:12;8.50;1.00
29547;DHT22;40782;47.264;11.330;2023-12-28T14:27:39;8.40;1.00
29547;DHT22;40782;47.264;11.330;2023-12-28T14:30:06;8.30;1.00
29547;DHT22;40782;47.264;11.330;2023-12-28T14:32:35;8.20;1.00
29547;DHT22;40782;47.264;11.330;2023-12-28T14:35:02;8.00;1.00
29547;DHT22;40782;47.264;11.330;2023-12-28T14:37:29;8.00;1.00
29547;DHT22;40782;47.264;11.330;2023-12-28T14:39:56;7.90;1.00
29547;DHT22;40782;47.264;11.330;2023-12-28T14:42:24;7.80;1.00
29547;DHT22;40782;47.264;11.330;2023-12-28T14:44:51;7.70;1.00
29547;DHT22;40782;47.264;11.330;2023-12-28T14:47:18;7.70;1.00
29547;DHT22;40782;47.264;11.330;2023-12-28T14:49:45;7.60;1.00
29547;DHT22;40782;47.264;11.330;2023-12-28T14:52:11;7.60;1.00
29547;DHT22;40782;47.264;11.330;2023-12-28T14:54:38;7.50;1.00
29547;DHT22;40782;47.264;11.330;2023-12-28T14:57:05;7.40;1.00
29547;DHT22;40782;47.264;11.330;2023-12-28T14:59:34;7.40;1.00
29547;DHT22;40782;47.264;11.330;2023-12-28T15:02:01;7.30;1.00
29547;DHT22;40782;47.264;11.330;2023-12-28T15:04:28;7.20;1.00
29547;DHT22;40782;47.264;11.330;2023-12-28T15:06:55;7.20;1.00
29547;DHT22;40782;47.264;11.330;2023-12-28T15:09:22;7.10;1.00
29547;DHT22;40782;47.264;11.330;2023-12-28T15:11:49;7.00;1.00
29547;DHT22;40782;47.264;11.330;2023-12-28T15:14:16;7.00;1.00
29547;DHT22;40782;47.264;11.330;2023-12-28T15:16:45;6.90;1.00
29547;DHT22;40782;47.264;11.330;2023-12-28T15:19:12;6.90;1.00
29547;DHT22;40782;47.264;11.330;2023-12-28T15:21:39;6.80;1.00
29547;DHT22;40782;47.264;11.330;2023-12-28T15:24:07;6.70;1.00
29547;DHT22;40782;47.264;11.330;2023-12-28T15:26:33;6.70;1.00
29547;DHT22;40782;47.264;11.330;2023-12-28T15:29:01;6.60;1.00
29547;DHT22;40782;47.264;11.330;2023-12-28T15:31:29;6.60;1.00